createdAt,value
2018-09-26T00:02:26.426Z,70.17
2018-09-26T00:04:55.737Z,70.37
2018-09-26T00:07:24.609Z,69.70
2018-09-26T00:10:00.013Z,70.45
2018-09-26T00:12:28.801Z,70.26
2018-09-26T00:14:57.618Z,70.44
2018-09-26T00:17:26.402Z,70.27
2018-09-26T00:19:55.332Z,70.36
2018-09-26T00:22:24.136Z,70.22
2018-09-26T00:24:52.890Z,70.52
2018-09-26T00:27:22.408Z,70.76
2018-09-26T00:29:51.175Z,70.18
2018-09-26T00:32:19.910Z,71.31
2018-09-26T00:34:49.339Z,70.12
2018-09-26T00:37:18.404Z,70.13
2018-09-26T00:39:47.838Z,70.13
2018-09-26T00:42:16.830Z,70.04
2018-09-26T00:44:45.719Z,69.73
2018-09-26T00:47:14.553Z,69.33
2018-09-26T00:49:43.856Z,70.21
2018-09-26T00:52:14.015Z,69.25
2018-09-26T00:54:42.788Z,69.12
2018-09-26T00:57:11.526Z,68.97
2018-09-26T00:59:41.125Z,68.90
2018-09-26T01:02:10.392Z,68.26
2018-09-26T01:04:39.892Z,68.42
2018-09-26T01:07:08.690Z,68.54
2018-09-26T01:09:37.590Z,68.75
2018-09-26T01:12:07.360Z,67.92
2018-09-26T01:14:36.360Z,68.27
2018-09-26T01:17:05.160Z,67.93
2018-09-26T01:19:34.045Z,68.10
2018-09-26T01:22:02.787Z,67.59
2018-09-26T01:24:31.800Z,67.66
2018-09-26T01:27:01.417Z,67.60
2018-09-26T01:29:30.304Z,67.60
2018-09-26T01:31:59.058Z,67.23
2018-09-26T01:34:28.510Z,67.19
2018-09-26T01:36:57.284Z,67.39
2018-09-26T01:39:26.051Z,66.46
2018-09-26T01:41:55.807Z,66.64
2018-09-26T01:44:25.461Z,66.81
2018-09-26T01:46:54.193Z,66.68
2018-09-26T01:49:22.957Z,66.58
2018-09-26T01:51:52.218Z,66.32
2018-09-26T01:54:21.751Z,65.65
2018-09-26T01:56:50.503Z,65.90
2018-09-26T01:59:20.151Z,65.16
2018-09-26T02:01:49.314Z,65.91
2018-09-26T02:04:20.065Z,65.54
2018-09-26T02:06:49.315Z,65.88
2018-09-26T02:09:18.891Z,65.43
2018-09-26T02:11:48.109Z,65.43
2018-09-26T02:14:17.230Z,64.59
2018-09-26T02:16:46.559Z,65.00
2018-09-26T02:19:15.536Z,65.02
2018-09-26T02:21:44.368Z,64.52
2018-09-26T02:24:13.096Z,64.80
2018-09-26T02:26:42.551Z,64.78
2018-09-26T02:29:12.039Z,64.82
2018-09-26T02:31:40.776Z,64.62
2018-09-26T02:34:09.499Z,65.40
2018-09-26T02:36:38.364Z,65.20
2018-09-26T02:39:08.213Z,65.28
2018-09-26T02:41:37.436Z,64.99
2018-09-26T02:44:07.183Z,64.95
2018-09-26T02:46:36.462Z,64.40
2018-09-26T02:49:06.280Z,65.08
2018-09-26T02:51:37.668Z,65.05
2018-09-26T02:54:07.914Z,64.53
2018-09-26T02:56:37.538Z,64.36
2018-09-26T02:59:07.115Z,64.59
2018-09-26T03:01:36.045Z,64.24
2018-09-26T03:04:05.905Z,64.35
2018-09-26T03:06:34.691Z,64.05
2018-09-26T03:09:03.663Z,63.86
2018-09-26T03:11:32.683Z,64.49
2018-09-26T03:14:01.430Z,64.61
2018-09-26T03:16:30.326Z,65.26
2018-09-26T03:18:59.075Z,64.94
2018-09-26T03:21:27.966Z,66.05
2018-09-26T03:23:56.706Z,66.85
2018-09-26T03:26:25.927Z,66.62
2018-09-26T03:28:54.712Z,68.43
2018-09-26T03:31:23.654Z,69.24
2018-09-26T03:33:52.513Z,70.16
2018-09-26T03:36:21.301Z,70.46
2018-09-26T03:38:50.279Z,70.73
2018-09-26T03:41:20.171Z,71.48
2018-09-26T03:43:49.307Z,71.45
2018-09-26T03:46:19.208Z,70.74
2018-09-26T03:48:48.623Z,71.25
2018-09-26T03:51:17.962Z,70.71
2018-09-26T03:53:47.879Z,71.14
2018-09-26T03:56:17.476Z,71.08
2018-09-26T03:58:47.178Z,71.91
2018-09-26T04:01:16.338Z,72.47
2018-09-26T04:03:46.451Z,71.97
2018-09-26T04:06:15.234Z,72.86
2018-09-26T04:08:44.583Z,72.73
2018-09-26T04:11:13.411Z,73.30
2018-09-26T04:13:42.272Z,72.86
2018-09-26T04:16:11.088Z,72.31
2018-09-26T04:18:39.873Z,72.81
2018-09-26T04:21:09.068Z,73.37
2018-09-26T04:23:38.124Z,74.14
2018-09-26T04:26:07.973Z,73.93
2018-09-26T04:28:36.996Z,74.30
2018-09-26T04:31:06.031Z,73.71
2018-09-26T04:33:34.853Z,73.40
2018-09-26T04:36:04.046Z,72.90
2018-09-26T04:38:33.122Z,73.20
2018-09-26T04:41:02.405Z,73.28
2018-09-26T04:43:31.517Z,72.63
2018-09-26T04:46:01.439Z,72.92
2018-09-26T04:48:30.242Z,72.46
2018-09-26T04:50:59.440Z,72.30
2018-09-26T04:53:28.959Z,71.84
2018-09-26T04:55:58.301Z,72.01
2018-09-26T04:58:27.604Z,71.86
2018-09-26T05:00:56.822Z,73.04
2018-09-26T05:03:25.595Z,72.22
2018-09-26T05:05:54.860Z,72.73
2018-09-26T05:08:23.748Z,73.01
2018-09-26T05:10:52.520Z,72.97
2018-09-26T05:13:21.469Z,73.03
2018-09-26T05:15:50.775Z,71.89
2018-09-26T05:18:19.675Z,71.17
2018-09-26T05:20:49.087Z,71.59
2018-09-26T05:23:18.320Z,71.88
2018-09-26T05:25:48.437Z,72.06
2018-09-26T05:28:18.218Z,73.23
2018-09-26T05:30:47.643Z,73.43
2018-09-26T05:33:16.724Z,74.18
2018-09-26T05:35:45.708Z,74.89
2018-09-26T05:38:14.522Z,73.58
2018-09-26T05:40:43.430Z,73.68
2018-09-26T05:43:12.252Z,74.60
2018-09-26T05:45:42.047Z,73.98
2018-09-26T05:48:10.861Z,73.55
2018-09-26T05:50:40.368Z,73.43
2018-09-26T05:53:09.648Z,73.33
2018-09-26T05:55:39.142Z,73.48
2018-09-26T05:58:08.572Z,73.38
2018-09-26T06:00:38.008Z,72.77
2018-09-26T06:03:07.392Z,73.16
2018-09-26T06:05:36.766Z,73.21
2018-09-26T06:08:06.759Z,73.33
2018-09-26T06:10:36.182Z,73.35
2018-09-26T06:13:05.090Z,72.68
2018-09-26T06:15:33.925Z,73.40
2018-09-26T06:18:02.753Z,72.86
2018-09-26T06:20:31.684Z,72.41
2018-09-26T06:23:00.510Z,72.43
2018-09-26T06:25:30.228Z,71.55
2018-09-26T06:27:59.489Z,71.73
2018-09-26T06:30:28.267Z,72.14
2018-09-26T06:32:57.033Z,72.03
2018-09-26T06:35:25.855Z,71.66
2018-09-26T06:37:54.663Z,72.53
2018-09-26T06:40:23.869Z,72.14
2018-09-26T06:42:52.817Z,72.39
2018-09-26T06:45:22.866Z,72.51
2018-09-26T06:47:52.110Z,72.65
2018-09-26T06:50:21.636Z,72.67
2018-09-26T06:52:51.013Z,72.34
2018-09-26T06:55:20.819Z,72.64
2018-09-26T06:57:50.132Z,71.87
2018-09-26T07:00:19.396Z,71.42
2018-09-26T07:02:48.631Z,72.05
2018-09-26T07:05:18.657Z,71.86
2018-09-26T07:07:47.856Z,72.10
2018-09-26T07:10:17.272Z,71.87
2018-09-26T07:12:46.564Z,72.31
2018-09-26T07:15:15.582Z,72.36
2018-09-26T07:17:44.477Z,72.55
2018-09-26T07:20:13.336Z,72.47
2018-09-26T07:22:42.274Z,73.05
2018-09-26T07:25:11.905Z,73.26
2018-09-26T07:27:41.522Z,72.94
2018-09-26T07:30:10.329Z,72.73
2018-09-26T07:32:39.322Z,72.65
2018-09-26T07:35:08.256Z,72.42
2018-09-26T07:37:37.305Z,71.98
2018-09-26T07:40:06.499Z,72.25
2018-09-26T07:42:35.347Z,71.76
2018-09-26T07:45:05.177Z,72.10
2018-09-26T07:47:33.975Z,71.92
2018-09-26T07:50:02.802Z,71.35
2018-09-26T07:52:32.493Z,71.23
2018-09-26T07:55:01.868Z,70.00
2018-09-26T07:57:31.288Z,70.44
2018-09-26T08:00:00.730Z,69.90
2018-09-26T08:02:29.511Z,69.72
2018-09-26T08:04:58.380Z,70.05
2018-09-26T08:07:27.274Z,69.95
2018-09-26T08:09:56.062Z,69.42
2018-09-26T08:12:25.262Z,69.02
2018-09-26T08:14:54.279Z,69.64
2018-09-26T08:17:23.075Z,68.62
2018-09-26T08:19:52.055Z,69.45
2018-09-26T08:22:20.842Z,68.46
2018-09-26T08:24:49.940Z,68.79
2018-09-26T08:27:19.474Z,69.07
2018-09-26T08:29:48.786Z,68.85
2018-09-26T08:32:17.918Z,68.40
2018-09-26T08:34:47.174Z,68.49
2018-09-26T08:37:16.545Z,68.74
2018-09-26T08:39:45.829Z,68.61
2018-09-26T08:42:15.501Z,68.88
2018-09-26T08:44:45.786Z,68.62
2018-09-26T08:47:14.698Z,68.40
2018-09-26T08:49:43.589Z,69.01
2018-09-26T08:52:12.909Z,69.05
2018-09-26T08:54:42.034Z,68.52
2018-09-26T08:57:11.690Z,68.96
2018-09-26T08:59:41.195Z,68.97
2018-09-26T09:02:09.951Z,69.72
2018-09-26T09:04:38.986Z,69.48
2018-09-26T09:07:07.903Z,69.50
2018-09-26T09:09:36.860Z,70.56
2018-09-26T09:12:06.008Z,70.33
2018-09-26T09:14:34.990Z,70.95
2018-09-26T09:17:03.684Z,70.20
2018-09-26T09:19:32.510Z,71.04
2018-09-26T09:22:01.941Z,70.92
2018-09-26T09:24:31.018Z,71.03
2018-09-26T09:27:00.553Z,71.47
2018-09-26T09:29:29.439Z,71.02
2018-09-26T09:31:58.930Z,71.72
2018-09-26T09:34:27.763Z,71.66
2018-09-26T09:36:56.834Z,71.52
2018-09-26T09:39:25.663Z,71.72
2018-09-26T09:41:55.778Z,71.49
2018-09-26T09:44:25.294Z,72.04
2018-09-26T09:46:54.118Z,71.62
2018-09-26T09:49:22.956Z,71.55
2018-09-26T09:51:52.291Z,72.03
2018-09-26T09:54:21.113Z,71.27
2018-09-26T09:56:49.874Z,71.34
2018-09-26T09:59:19.271Z,71.54
2018-09-26T10:01:48.494Z,71.72
2018-09-26T10:04:18.204Z,71.40
2018-09-26T10:06:48.158Z,71.69
2018-09-26T10:10:19.945Z,71.34
2018-09-26T10:12:48.938Z,71.20
2018-09-26T10:15:18.400Z,71.73
2018-09-26T10:17:47.427Z,70.60
2018-09-26T10:20:16.644Z,71.32
2018-09-26T10:22:45.761Z,70.46
2018-09-26T10:25:15.687Z,69.83
2018-09-26T10:27:45.232Z,70.03
2018-09-26T10:30:14.276Z,69.83
2018-09-26T10:32:43.117Z,70.10
2018-09-26T10:35:12.865Z,70.10
2018-09-26T10:37:42.328Z,69.51
2018-09-26T10:40:11.173Z,69.25
2018-09-26T10:42:40.301Z,69.94
2018-09-26T10:45:10.136Z,69.74
2018-09-26T10:47:39.403Z,69.54
2018-09-26T10:50:09.247Z,69.23
2018-09-26T10:52:38.859Z,69.18
2018-09-26T10:55:08.661Z,68.83
2018-09-26T10:57:38.141Z,68.87
2018-09-26T11:00:07.757Z,68.55
2018-09-26T11:02:37.063Z,67.45
2018-09-26T11:05:06.401Z,67.78
2018-09-26T11:07:36.540Z,67.06
2018-09-26T11:10:05.569Z,66.56
2018-09-26T11:12:35.511Z,67.67
2018-09-26T11:15:04.381Z,67.58
2018-09-26T11:17:33.282Z,68.53
2018-09-26T11:20:02.095Z,68.06
2018-09-26T11:22:31.033Z,68.18
2018-09-26T11:25:00.392Z,68.54
2018-09-26T11:27:31.123Z,69.78
2018-09-26T11:30:00.377Z,69.01
2018-09-26T11:32:29.733Z,70.18
2018-09-26T11:34:59.021Z,70.14
2018-09-26T11:37:27.800Z,70.01
2018-09-26T11:39:56.551Z,69.88
2018-09-26T11:42:25.409Z,70.38
2018-09-26T11:44:54.822Z,69.85
2018-09-26T11:47:24.284Z,70.47
2018-09-26T11:49:53.088Z,70.25
2018-09-26T11:52:22.520Z,70.35
2018-09-26T11:54:51.323Z,70.36
2018-09-26T11:57:20.633Z,69.92
2018-09-26T11:59:50.006Z,70.16
2018-09-26T12:02:19.313Z,69.83
2018-09-26T12:04:48.544Z,69.87
2018-09-26T12:07:17.820Z,70.06
2018-09-26T12:09:47.166Z,69.81
2018-09-26T12:12:16.429Z,69.90
2018-09-26T12:14:45.826Z,69.79
2018-09-26T12:17:14.658Z,69.86
2018-09-26T12:19:43.578Z,69.44
2018-09-26T12:22:12.603Z,69.33
2018-09-26T12:24:42.027Z,68.51
2018-09-26T12:27:12.113Z,69.52
2018-09-26T12:29:42.639Z,69.02
2018-09-26T12:32:12.001Z,70.01
2018-09-26T12:34:42.310Z,70.11
2018-09-26T12:37:11.254Z,70.50
2018-09-26T12:39:40.056Z,70.53
2018-09-26T12:42:09.527Z,69.84
2018-09-26T12:44:40.029Z,71.01
2018-09-26T12:47:09.733Z,71.04
2018-09-26T12:49:38.711Z,71.01
2018-09-26T12:52:08.528Z,70.91
2018-09-26T12:54:37.674Z,71.17
2018-09-26T12:57:07.225Z,70.58
2018-09-26T12:59:36.743Z,70.53
2018-09-26T13:02:05.946Z,70.85
2018-09-26T13:04:34.838Z,70.39
2018-09-26T13:07:03.719Z,71.24
2018-09-26T13:09:32.805Z,70.37
2018-09-26T13:12:01.884Z,70.84
2018-09-26T13:14:30.999Z,70.41
2018-09-26T13:17:00.479Z,70.35
2018-09-26T13:19:29.273Z,71.11
2018-09-26T13:21:58.893Z,70.89
2018-09-26T13:24:27.884Z,70.63
2018-09-26T13:26:57.739Z,70.39
2018-09-26T13:29:26.488Z,71.17
2018-09-26T13:31:55.928Z,71.37
2018-09-26T13:34:24.770Z,71.48
2018-09-26T13:36:58.060Z,71.41
2018-09-26T13:39:27.031Z,70.81
2018-09-26T13:41:56.256Z,70.84
2018-09-26T13:44:26.313Z,70.38
2018-09-26T13:46:56.556Z,71.05
2018-09-26T13:49:56.018Z,71.42
2018-09-26T13:52:26.095Z,70.36
2018-09-26T13:54:55.071Z,70.83
2018-09-26T13:57:24.788Z,70.62
2018-09-26T13:59:55.018Z,70.51
2018-09-26T14:02:24.091Z,71.34
2018-09-26T14:04:53.735Z,71.17
2018-09-26T14:07:27.054Z,71.04
2018-09-26T14:09:56.179Z,70.17
2018-09-26T14:12:25.149Z,70.45
2018-09-26T14:14:54.156Z,70.36
2018-09-26T14:17:23.728Z,70.44
2018-09-26T14:19:53.607Z,70.39
2018-09-26T14:22:22.856Z,70.36
2018-09-26T14:24:52.683Z,69.68
2018-09-26T14:27:22.265Z,69.38
2018-09-26T14:29:52.423Z,69.63
2018-09-26T14:32:21.438Z,69.78
2018-09-26T14:34:50.920Z,70.60
2018-09-26T14:37:21.114Z,70.23
2018-09-26T14:39:50.206Z,70.27
2018-09-26T14:42:19.415Z,70.03
2018-09-26T14:44:49.143Z,69.51
2018-09-26T14:47:19.309Z,70.11
2018-09-26T14:49:49.280Z,69.96
2018-09-26T14:52:19.378Z,70.04
2018-09-26T14:54:49.297Z,69.38
2018-09-26T14:57:19.395Z,69.65
2018-09-26T14:59:49.031Z,68.90
2018-09-26T15:02:19.934Z,69.68
2018-09-26T15:04:50.330Z,69.50
2018-09-26T15:07:22.471Z,69.20
2018-09-26T15:09:53.070Z,69.01
2018-09-26T15:12:22.227Z,69.19
2018-09-26T15:14:51.355Z,69.67
2018-09-26T15:17:22.854Z,69.96
2018-09-26T15:19:51.794Z,69.41
2018-09-26T15:22:20.755Z,69.35
2018-09-26T15:24:50.561Z,69.89
2018-09-26T15:27:20.497Z,69.94
2018-09-26T15:29:49.575Z,69.32
2018-09-26T15:32:19.822Z,69.81
2018-09-26T15:34:49.643Z,69.82
2018-09-26T15:37:19.603Z,70.22
2018-09-26T15:39:48.879Z,69.39
2018-09-26T15:42:18.559Z,70.42
2018-09-26T15:44:48.504Z,70.86
2018-09-26T15:47:19.376Z,69.64
2018-09-26T15:49:48.672Z,69.72
2018-09-26T15:52:18.300Z,70.81
2018-09-26T15:54:47.591Z,70.19
2018-09-26T15:57:19.814Z,70.63
2018-09-26T15:59:50.952Z,70.60
2018-09-26T16:02:20.358Z,70.81
2018-09-26T16:04:49.329Z,70.37
2018-09-26T16:07:18.836Z,70.32
2018-09-26T16:09:48.051Z,70.55
2018-09-26T16:12:17.256Z,71.01
2018-09-26T16:14:46.467Z,70.67
2018-09-26T16:17:16.750Z,70.85
2018-09-26T16:19:45.623Z,70.80
2018-09-26T16:22:14.553Z,71.65
2018-09-26T16:24:43.826Z,71.80
2018-09-26T16:27:13.160Z,70.91
2018-09-26T16:29:41.992Z,71.65
2018-09-26T16:32:11.212Z,71.93
2018-09-26T16:34:40.241Z,71.94
2018-09-26T16:37:09.234Z,71.67
2018-09-26T16:39:38.634Z,72.00
2018-09-26T16:42:07.764Z,72.04
2018-09-26T16:44:37.288Z,71.59
2018-09-26T16:47:07.232Z,71.61
2018-09-26T16:49:36.253Z,72.00
2018-09-26T16:52:05.807Z,71.85
2018-09-26T16:54:34.627Z,72.20
2018-09-26T16:57:04.098Z,72.28
2018-09-26T16:59:33.745Z,71.54
2018-09-26T17:02:02.668Z,72.27
2018-09-26T17:04:31.541Z,71.89
2018-09-26T17:07:00.416Z,71.65
2018-09-26T17:09:29.243Z,71.68
2018-09-26T17:11:58.209Z,71.95
2018-09-26T17:14:27.173Z,72.57
2018-09-26T17:16:56.461Z,71.74
2018-09-26T17:19:25.376Z,72.64
2018-09-26T17:21:55.088Z,72.27
2018-09-26T17:24:23.957Z,72.33
2018-09-26T17:26:53.550Z,71.85
2018-09-26T17:29:22.385Z,71.50
2018-09-26T17:31:51.227Z,71.82
2018-09-26T17:34:20.190Z,71.72
2018-09-26T17:36:49.134Z,71.70
2018-09-26T17:39:18.929Z,71.82
2018-09-26T17:41:48.448Z,71.82
2018-09-26T17:44:18.644Z,72.15
2018-09-26T17:46:47.707Z,72.56
2018-09-26T17:49:17.716Z,72.24
2018-09-26T17:51:47.293Z,72.86
2018-09-26T17:54:17.430Z,73.01
2018-09-26T17:56:46.869Z,72.64
2018-09-26T17:59:16.785Z,72.77
2018-09-26T18:01:45.965Z,72.84
2018-09-26T18:04:14.836Z,72.18
2018-09-26T18:06:43.787Z,72.93
2018-09-26T18:09:15.476Z,72.91
2018-09-26T18:11:44.404Z,72.13
2018-09-26T18:14:13.297Z,72.09
2018-09-26T18:16:43.297Z,73.13
2018-09-26T18:19:13.644Z,72.74
2018-09-26T18:21:42.480Z,72.43
2018-09-26T18:24:11.333Z,72.30
2018-09-26T18:26:41.023Z,72.97
2018-09-26T18:29:09.865Z,72.39
2018-09-26T18:31:39.269Z,72.30
2018-09-26T18:34:08.137Z,71.65
2018-09-26T18:36:37.045Z,72.10
2018-09-26T18:39:08.577Z,71.74
2018-09-26T18:41:37.667Z,71.36
2018-09-26T18:45:10.348Z,71.46
2018-09-26T18:47:39.620Z,71.08
2018-09-26T18:50:08.668Z,71.27
2018-09-26T18:52:38.431Z,70.71
2018-09-26T18:55:07.479Z,70.58
2018-09-26T18:57:37.079Z,70.98
2018-09-26T19:00:06.847Z,70.17
2018-09-26T19:02:35.648Z,69.85
2018-09-26T19:05:04.734Z,70.46
2018-09-26T19:07:33.409Z,69.98
2018-09-26T19:10:02.257Z,69.68
2018-09-26T19:12:31.191Z,69.50
2018-09-26T19:15:00.035Z,69.90
2018-09-26T19:17:29.868Z,70.52
2018-09-26T19:19:58.704Z,69.46
2018-09-26T19:22:27.535Z,69.94
2018-09-26T19:24:57.277Z,69.79
2018-09-26T19:27:26.809Z,70.27
2018-09-26T19:29:56.493Z,69.80
2018-09-26T19:32:25.341Z,69.71
2018-09-26T19:34:54.329Z,70.13
2018-09-26T19:37:23.859Z,70.00
2018-09-26T19:39:53.585Z,69.95
2018-09-26T19:42:22.457Z,69.56
2018-09-26T19:44:51.820Z,70.43
2018-09-26T19:47:21.321Z,70.29
2018-09-26T19:49:50.253Z,70.42
2018-09-26T19:52:19.834Z,70.36
2018-09-26T19:54:48.812Z,70.44
2018-09-26T19:57:19.284Z,70.20
2018-09-26T19:59:49.040Z,70.07
2018-09-26T20:02:18.139Z,69.88
2018-09-26T20:04:47.531Z,70.50
2018-09-26T20:07:16.658Z,70.61
2018-09-26T20:09:45.539Z,70.01
2018-09-26T20:12:14.515Z,70.34
2018-09-26T20:14:43.976Z,70.01
2018-09-26T20:17:13.296Z,70.75
2018-09-26T20:19:42.184Z,70.44
2018-09-26T20:22:11.108Z,70.27
2018-09-26T20:24:40.050Z,70.11
2018-09-26T20:27:09.507Z,69.99
2018-09-26T20:29:38.606Z,69.77
2018-09-26T20:32:07.981Z,69.73
2018-09-26T20:34:36.954Z,69.74
2018-09-26T20:37:06.030Z,70.17
2018-09-26T20:39:34.893Z,69.36
2018-09-26T20:42:03.680Z,70.02
2018-09-26T20:44:33.391Z,69.60
2018-09-26T20:47:02.847Z,70.06
2018-09-26T20:49:31.724Z,69.58
2018-09-26T20:52:01.250Z,70.07
2018-09-26T20:54:31.176Z,70.26
2018-09-26T20:57:00.553Z,69.66
2018-09-26T20:59:29.857Z,70.39
2018-09-26T21:01:58.674Z,69.50
2018-09-26T21:04:27.546Z,70.15
2018-09-26T21:06:56.389Z,69.68
2018-09-26T21:09:25.237Z,70.29
2018-09-26T21:11:54.547Z,69.56
2018-09-26T21:14:23.380Z,69.35
2018-09-26T21:16:52.820Z,69.81
2018-09-26T21:19:21.652Z,69.54
2018-09-26T21:21:50.562Z,68.97
2018-09-26T21:24:19.478Z,68.79
2018-09-26T21:26:49.150Z,68.45
2018-09-26T21:29:18.754Z,68.72
2018-09-26T21:31:48.580Z,68.46
2018-09-26T21:34:17.659Z,68.24
2018-09-26T21:36:47.441Z,68.53
2018-09-26T21:39:16.754Z,68.32
2018-09-26T21:41:45.567Z,67.79
2018-09-26T21:44:15.248Z,68.00
2018-09-26T21:46:44.272Z,68.36
2018-09-26T21:49:13.944Z,68.81
2018-09-26T21:51:43.327Z,68.59
2018-09-26T21:54:12.776Z,68.89
2018-09-26T21:56:41.606Z,69.13
2018-09-26T21:59:11.033Z,68.53
2018-09-26T22:01:39.905Z,69.15
2018-09-26T22:04:08.920Z,69.37
2018-09-26T22:06:37.957Z,69.43
2018-09-26T22:09:08.735Z,69.24
2018-09-26T22:11:37.729Z,69.36
2018-09-26T22:14:06.599Z,69.91
2018-09-26T22:16:35.572Z,70.13
2018-09-26T22:19:04.394Z,70.60
2018-09-26T22:21:33.271Z,69.86
2018-09-26T22:24:02.118Z,70.02
2018-09-26T22:26:31.967Z,69.99
2018-09-26T22:29:00.764Z,70.39
2018-09-26T22:31:30.429Z,71.04
2018-09-26T22:33:59.203Z,70.88
2018-09-26T22:36:28.043Z,70.53
2018-09-26T22:38:56.893Z,70.94
2018-09-26T22:41:25.695Z,71.06
2018-09-26T22:43:54.585Z,71.24
2018-09-26T22:46:24.001Z,71.54
2018-09-26T22:48:53.526Z,70.91
2018-09-26T22:51:23.287Z,70.95
2018-09-26T22:53:52.821Z,71.57
2018-09-26T22:56:21.587Z,71.49
2018-09-26T22:58:51.141Z,71.15
2018-09-26T23:01:19.932Z,71.14
2018-09-26T23:03:49.572Z,71.55
2018-09-26T23:06:19.356Z,70.63
2018-09-26T23:08:48.388Z,71.21
2018-09-26T23:11:17.330Z,70.96
2018-09-26T23:13:46.281Z,71.32
2018-09-26T23:16:15.154Z,71.18
2018-09-26T23:18:44.008Z,71.54
2018-09-26T23:21:12.870Z,70.71
2018-09-26T23:23:41.669Z,70.37
2018-09-26T23:26:11.219Z,71.23
2018-09-26T23:28:39.968Z,71.03
2018-09-26T23:31:09.021Z,70.36
2018-09-26T23:33:37.966Z,70.51
2018-09-26T23:36:06.847Z,70.18
2018-09-26T23:38:35.806Z,70.12
2018-09-26T23:41:04.685Z,70.17
2018-09-26T23:43:33.500Z,69.83
2018-09-26T23:46:03.135Z,69.51
2018-09-26T23:48:32.643Z,69.23
2018-09-26T23:51:01.433Z,68.63
2018-09-26T23:53:30.783Z,68.38
2018-09-26T23:55:59.548Z,68.22
2018-09-26T23:58:29.257Z,68.38
